PAL318 RPLL-VHHH
Flight info
| Callsign | PAL318 |
|---|---|
| Flight time | N/A |
| Altitude | 40000 |
| Route | CAB2R CAB A461 NOMAN V532 BETTY |
| Aircraft | A359/H-SDE2E3GHIJ3J4J5LM1ORWXY/LB1D1 |
Departure
| Time | 2026-05-05 03:11 |
|---|---|
| Airport | Ninoy Aquino International Airport (RPLL) |
Arrival
| Time | N/A |
|---|---|
| Airport | Hong Kong International Airport (VHHH) |
| Time | Latitude | Longitude | Altitude | Speed | Heading |
|---|---|---|---|---|---|
| 2026-05-05 02:55 | 14.50477 | 121.00595 | 89 ft | 0 kts | 15° |
| 2026-05-05 02:57 | 14.50474 | 121.00594 | 89 ft | 2 kts | 14° |
| 2026-05-05 02:58 | 14.50460 | 121.00592 | 89 ft | 2 kts | 358° |
| 2026-05-05 02:58 | 14.50445 | 121.00594 | 89 ft | 2 kts | 344° |
| 2026-05-05 02:58 | 14.50431 | 121.00600 | 89 ft | 2 kts | 331° |
| 2026-05-05 02:58 | 14.50418 | 121.00608 | 89 ft | 2 kts | 318° |
| 2026-05-05 02:59 | 14.50408 | 121.00620 | 89 ft | 2 kts | 305° |
| 2026-05-05 02:59 | 14.50400 | 121.00633 | 89 ft | 2 kts | 292° |
| 2026-05-05 02:59 | 14.50396 | 121.00648 | 89 ft | 2 kts | 279° |
| 2026-05-05 02:59 | 14.50395 | 121.00663 | 89 ft | 2 kts | 266° |
| 2026-05-05 03:00 | 14.50397 | 121.00678 | 89 ft | 2 kts | 253° |
| 2026-05-05 03:00 | 14.50403 | 121.00693 | 89 ft | 2 kts | 240° |
| 2026-05-05 03:00 | 14.50410 | 121.00706 | 89 ft | 2 kts | 237° |
| 2026-05-05 03:00 | 14.50418 | 121.00719 | 89 ft | 2 kts | 239° |
| 2026-05-05 03:01 | 14.50426 | 121.00732 | 89 ft | 2 kts | 239° |
| 2026-05-05 03:01 | 14.50433 | 121.00745 | 89 ft | 1 kts | 239° |
| 2026-05-05 03:01 | 14.50434 | 121.00747 | 89 ft | 0 kts | 239° |
| 2026-05-05 03:04 | 14.50432 | 121.00742 | 89 ft | 1 kts | 237° |
| 2026-05-05 03:04 | 14.50418 | 121.00728 | 89 ft | 3 kts | 214° |
| 2026-05-05 03:04 | 14.50386 | 121.00715 | 89 ft | 6 kts | 198° |
| 2026-05-05 03:05 | 14.50339 | 121.00695 | 89 ft | 8 kts | 212° |
| 2026-05-05 03:05 | 14.50293 | 121.00641 | 89 ft | 11 kts | 238° |
| 2026-05-05 03:05 | 14.50248 | 121.00561 | 89 ft | 14 kts | 242° |
| 2026-05-05 03:05 | 14.50194 | 121.00461 | 89 ft | 17 kts | 241° |
| 2026-05-05 03:06 | 14.50130 | 121.00346 | 89 ft | 19 kts | 240° |
| 2026-05-05 03:06 | 14.50061 | 121.00222 | 89 ft | 22 kts | 240° |
| 2026-05-05 03:06 | 14.49980 | 121.00075 | 89 ft | 24 kts | 240° |
| 2026-05-05 03:06 | 14.49941 | 121.00007 | 89 ft | 7 kts | 238° |
| 2026-05-05 03:07 | 14.49917 | 120.99977 | 89 ft | 1 kts | 216° |
| 2026-05-05 03:07 | 14.49904 | 120.99970 | 89 ft | 2 kts | 204° |
| 2026-05-05 03:07 | 14.49887 | 120.99968 | 89 ft | 0 kts | 174° |
| 2026-05-05 03:07 | 14.49883 | 120.99969 | 89 ft | 1 kts | 169° |
| 2026-05-05 03:08 | 14.49881 | 120.99970 | 89 ft | 0 kts | 166° |
| 2026-05-05 03:09 | 14.49869 | 120.99972 | 89 ft | 2 kts | 161° |
| 2026-05-05 03:09 | 14.49846 | 120.99985 | 89 ft | 4 kts | 150° |
| 2026-05-05 03:09 | 14.49818 | 121.00013 | 89 ft | 6 kts | 117° |
| 2026-05-05 03:09 | 14.49820 | 121.00069 | 89 ft | 9 kts | 71° |
| 2026-05-05 03:10 | 14.49854 | 121.00139 | 89 ft | 12 kts | 60° |
| 2026-05-05 03:10 | 14.49859 | 121.00148 | 89 ft | 0 kts | 60° |
| 2026-05-05 03:10 | 14.49860 | 121.00152 | 89 ft | 4 kts | 60° |
| 2026-05-05 03:10 | 14.49991 | 121.00404 | 89 ft | 77 kts | 61° |
| 2026-05-05 03:11 | 14.50378 | 121.01102 | 89 ft | 143 kts | 62° |
| 2026-05-05 03:11 | 14.50897 | 121.02084 | 554 ft | 159 kts | 59° |
| 2026-05-05 03:11 | 14.51743 | 121.02774 | 1266 ft | 166 kts | 18° |
| 2026-05-05 03:11 | 14.52895 | 121.02657 | 1981 ft | 175 kts | 335° |
| 2026-05-05 03:12 | 14.53759 | 121.01714 | 2503 ft | 191 kts | 298° |
| 2026-05-05 03:12 | 14.54305 | 121.00413 | 2861 ft | 205 kts | 298° |
| 2026-05-05 03:12 | 14.55218 | 120.99240 | 3178 ft | 215 kts | 332° |
| 2026-05-05 03:12 | 14.56693 | 120.98925 | 3504 ft | 225 kts | 3° |
| 2026-05-05 03:13 | 14.58323 | 120.99017 | 3914 ft | 242 kts | 7° |
| 2026-05-05 03:13 | 14.60062 | 120.99161 | 4390 ft | 258 kts | 5° |
| 2026-05-05 03:13 | 14.61885 | 120.99278 | 5035 ft | 268 kts | 4° |
| 2026-05-05 03:13 | 14.63745 | 120.99380 | 5861 ft | 270 kts | 2° |
| 2026-05-05 03:14 | 14.65571 | 120.99463 | 6686 ft | 272 kts | 3° |
| 2026-05-05 03:14 | 14.66837 | 120.99513 | 7240 ft | 274 kts | 2° |
| 2026-05-05 03:14 | 14.69379 | 120.99638 | 8329 ft | 279 kts | 6° |
| 2026-05-05 03:14 | 14.70618 | 120.99999 | 8835 ft | 284 kts | 26° |
| 2026-05-05 03:15 | 14.72402 | 121.02007 | 9913 ft | 296 kts | 65° |
| 2026-05-05 03:15 | 14.72874 | 121.04109 | 10626 ft | 307 kts | 81° |
| 2026-05-05 03:15 | 14.73133 | 121.06312 | 11289 ft | 315 kts | 74° |
| 2026-05-05 03:15 | 14.74076 | 121.08342 | 11999 ft | 316 kts | 47° |
| 2026-05-05 03:16 | 14.75746 | 121.09740 | 12753 ft | 314 kts | 23° |
| 2026-05-05 03:16 | 14.77808 | 121.10329 | 13552 ft | 311 kts | 0° |
| 2026-05-05 03:16 | 14.79931 | 121.10025 | 14359 ft | 309 kts | 341° |
| 2026-05-05 03:16 | 14.81278 | 121.09549 | 14891 ft | 311 kts | 339° |
| 2026-05-05 03:17 | 14.86060 | 121.07752 | 16631 ft | 320 kts | 340° |
| 2026-05-05 03:17 | 14.88162 | 121.07027 | 17360 ft | 324 kts | 344° |
| 2026-05-05 03:17 | 14.90373 | 121.06509 | 18092 ft | 327 kts | 350° |
| 2026-05-05 03:18 | 14.92639 | 121.06235 | 18828 ft | 330 kts | 355° |
| 2026-05-05 03:18 | 14.94898 | 121.06070 | 19555 ft | 333 kts | 356° |
| 2026-05-05 03:18 | 14.97230 | 121.05917 | 20294 ft | 336 kts | 356° |
| 2026-05-05 03:18 | 14.99494 | 121.05767 | 20998 ft | 338 kts | 357° |
| 2026-05-05 03:19 | 15.04217 | 121.05448 | 22417 ft | 344 kts | 358° |
| 2026-05-05 03:19 | 15.06638 | 121.05283 | 23101 ft | 347 kts | 358° |
| 2026-05-05 03:19 | 15.09051 | 121.05117 | 23736 ft | 351 kts | 358° |
| 2026-05-05 03:20 | 15.11457 | 121.04952 | 24336 ft | 354 kts | 358° |
| 2026-05-05 03:20 | 15.13947 | 121.04781 | 24930 ft | 358 kts | 358° |
| 2026-05-05 03:20 | 15.16442 | 121.04610 | 25497 ft | 362 kts | 358° |
| 2026-05-05 03:20 | 15.18939 | 121.04438 | 26040 ft | 366 kts | 359° |
| 2026-05-05 03:21 | 15.21529 | 121.04260 | 26576 ft | 370 kts | 359° |
| 2026-05-05 03:21 | 15.24070 | 121.04084 | 27078 ft | 374 kts | 359° |
| 2026-05-05 03:21 | 15.26685 | 121.03903 | 27574 ft | 378 kts | 359° |
| 2026-05-05 03:21 | 15.29289 | 121.03723 | 28047 ft | 381 kts | 359° |
| 2026-05-05 03:22 | 15.31927 | 121.03542 | 28506 ft | 385 kts | 359° |
| 2026-05-05 03:22 | 15.34638 | 121.03355 | 28957 ft | 389 kts | 359° |
| 2026-05-05 03:22 | 15.37335 | 121.03168 | 29390 ft | 392 kts | 359° |
| 2026-05-05 03:22 | 15.40068 | 121.02979 | 29810 ft | 396 kts | 359° |
| 2026-05-05 03:23 | 15.42594 | 121.02794 | 30181 ft | 399 kts | 358° |
| 2026-05-05 03:23 | 15.45576 | 121.02372 | 30599 ft | 405 kts | 352° |
| 2026-05-05 03:23 | 15.48336 | 121.01698 | 30973 ft | 411 kts | 347° |
| 2026-05-05 03:23 | 15.51054 | 121.00748 | 31332 ft | 416 kts | 341° |
| 2026-05-05 03:24 | 15.53713 | 120.99522 | 31678 ft | 421 kts | 336° |
| 2026-05-05 03:24 | 15.56325 | 120.98151 | 32020 ft | 425 kts | 335° |
| 2026-05-05 03:24 | 15.58812 | 120.96815 | 32338 ft | 428 kts | 335° |
| 2026-05-05 03:24 | 15.61271 | 120.95491 | 32643 ft | 431 kts | 335° |
| 2026-05-05 03:25 | 15.64086 | 120.93980 | 32986 ft | 435 kts | 335° |
| 2026-05-05 03:25 | 15.66763 | 120.92547 | 33308 ft | 437 kts | 335° |
| 2026-05-05 03:25 | 15.69478 | 120.91097 | 33625 ft | 440 kts | 335° |
| 2026-05-05 03:25 | 15.72225 | 120.89632 | 33937 ft | 443 kts | 335° |
| 2026-05-05 03:26 | 15.74415 | 120.88464 | 34181 ft | 445 kts | 335° |
| 2026-05-05 03:26 | 15.76688 | 120.87252 | 34435 ft | 447 kts | 335° |
| 2026-05-05 03:26 | 15.80839 | 120.85039 | 34896 ft | 450 kts | 335° |
| 2026-05-05 03:26 | 15.83558 | 120.83589 | 35188 ft | 452 kts | 335° |
| 2026-05-05 03:27 | 15.85438 | 120.82586 | 35385 ft | 453 kts | 335° |
| 2026-05-05 03:27 | 15.88186 | 120.81120 | 35665 ft | 455 kts | 335° |
| 2026-05-05 03:27 | 15.91271 | 120.79481 | 35980 ft | 456 kts | 333° |
| 2026-05-05 03:27 | 15.94107 | 120.77986 | 36454 ft | 452 kts | 332° |
| 2026-05-05 03:28 | 15.95025 | 120.77497 | 36622 ft | 450 kts | 332° |
| 2026-05-05 03:28 | 15.96042 | 120.76954 | 36786 ft | 449 kts | 332° |
| 2026-05-05 03:28 | 15.97204 | 120.76332 | 36946 ft | 448 kts | 332° |
| 2026-05-05 03:28 | 15.99797 | 120.74922 | 37114 ft | 452 kts | 335° |
| 2026-05-05 03:29 | 16.02588 | 120.73427 | 37224 ft | 457 kts | 335° |
| 2026-05-05 03:29 | 16.05412 | 120.71924 | 37332 ft | 461 kts | 335° |
| 2026-05-05 03:29 | 16.08284 | 120.70396 | 37440 ft | 466 kts | 335° |
| 2026-05-05 03:29 | 16.11190 | 120.68847 | 37568 ft | 470 kts | 335° |
| 2026-05-05 03:30 | 16.14100 | 120.67300 | 37769 ft | 472 kts | 335° |
| 2026-05-05 03:30 | 16.16987 | 120.65764 | 38034 ft | 472 kts | 335° |
| 2026-05-05 03:30 | 16.19899 | 120.64211 | 38301 ft | 472 kts | 335° |
| 2026-05-05 03:30 | 16.21859 | 120.63165 | 38457 ft | 472 kts | 335° |
| 2026-05-05 03:31 | 16.25725 | 120.61097 | 38721 ft | 474 kts | 335° |
| 2026-05-05 03:31 | 16.28655 | 120.59528 | 38906 ft | 475 kts | 335° |
| 2026-05-05 03:31 | 16.31577 | 120.57963 | 39089 ft | 476 kts | 335° |
| 2026-05-05 03:31 | 16.34524 | 120.56383 | 39271 ft | 477 kts | 335° |
| 2026-05-05 03:32 | 16.37441 | 120.54819 | 39445 ft | 478 kts | 335° |
| 2026-05-05 03:32 | 16.40420 | 120.53221 | 39616 ft | 479 kts | 335° |
| 2026-05-05 03:32 | 16.43378 | 120.51634 | 39783 ft | 480 kts | 335° |
| 2026-05-05 03:32 | 16.46338 | 120.50045 | 39926 ft | 482 kts | 335° |
| 2026-05-05 03:33 | 16.52291 | 120.46848 | 39946 ft | 483 kts | 335° |
| 2026-05-05 03:33 | 16.58237 | 120.43652 | 39950 ft | 483 kts | 335° |
| 2026-05-05 03:34 | 16.64188 | 120.40447 | 39950 ft | 483 kts | 334° |
| 2026-05-05 03:34 | 16.69951 | 120.36855 | 39952 ft | 485 kts | 328° |
| 2026-05-05 03:35 | 16.75297 | 120.32616 | 39950 ft | 486 kts | 321° |
| 2026-05-05 03:35 | 16.80190 | 120.27740 | 39950 ft | 488 kts | 315° |
| 2026-05-05 03:36 | 16.84827 | 120.22621 | 39951 ft | 488 kts | 314° |
| 2026-05-05 03:36 | 16.89473 | 120.17487 | 39951 ft | 488 kts | 315° |
| 2026-05-05 03:37 | 16.93352 | 120.13217 | 39951 ft | 488 kts | 315° |
| 2026-05-05 03:37 | 16.94914 | 120.11498 | 39951 ft | 488 kts | 315° |
| 2026-05-05 03:38 | 17.03471 | 120.02089 | 39951 ft | 489 kts | 315° |
| 2026-05-05 03:38 | 17.08150 | 119.96941 | 39951 ft | 491 kts | 315° |
| 2026-05-05 03:39 | 17.12602 | 119.92050 | 39950 ft | 492 kts | 315° |
| 2026-05-05 03:39 | 17.17380 | 119.86816 | 39951 ft | 493 kts | 315° |
| 2026-05-05 03:40 | 17.22062 | 119.81666 | 39951 ft | 493 kts | 315° |
| 2026-05-05 03:40 | 17.26795 | 119.76446 | 39951 ft | 493 kts | 315° |
| 2026-05-05 03:41 | 17.31496 | 119.71253 | 39951 ft | 493 kts | 315° |
| 2026-05-05 03:41 | 17.36163 | 119.66093 | 39951 ft | 493 kts | 315° |
| 2026-05-05 03:42 | 17.40861 | 119.60896 | 39951 ft | 493 kts | 315° |
| 2026-05-05 03:42 | 17.45565 | 119.55687 | 39951 ft | 493 kts | 315° |
| 2026-05-05 03:43 | 17.50271 | 119.50472 | 39951 ft | 493 kts | 315° |
| 2026-05-05 03:43 | 17.54953 | 119.45279 | 39951 ft | 493 kts | 315° |
| 2026-05-05 03:44 | 17.59663 | 119.40050 | 39951 ft | 493 kts | 315° |
| 2026-05-05 03:44 | 17.64341 | 119.34853 | 39951 ft | 493 kts | 314° |
| 2026-05-05 03:45 | 17.69018 | 119.29627 | 39951 ft | 493 kts | 314° |
| 2026-05-05 03:45 | 17.73706 | 119.24391 | 39951 ft | 493 kts | 314° |
| 2026-05-05 03:46 | 17.77610 | 119.20040 | 39951 ft | 493 kts | 314° |
| 2026-05-05 03:46 | 17.83070 | 119.13958 | 39951 ft | 493 kts | 314° |
| 2026-05-05 03:47 | 17.87771 | 119.08719 | 39951 ft | 493 kts | 314° |
| 2026-05-05 03:47 | 17.92434 | 119.03520 | 39951 ft | 493 kts | 314° |
| 2026-05-05 03:48 | 17.96364 | 118.99140 | 39952 ft | 492 kts | 314° |
| 2026-05-05 03:48 | 18.01021 | 118.93932 | 39952 ft | 490 kts | 314° |
| 2026-05-05 03:49 | 18.06424 | 118.87862 | 39952 ft | 488 kts | 314° |
| 2026-05-05 03:49 | 18.11040 | 118.82684 | 39951 ft | 486 kts | 314° |
| 2026-05-05 03:50 | 18.14132 | 118.79237 | 39952 ft | 485 kts | 314° |
| 2026-05-05 03:50 | 18.20270 | 118.72376 | 39951 ft | 484 kts | 313° |
| 2026-05-05 03:51 | 18.24856 | 118.67231 | 39951 ft | 484 kts | 313° |
| 2026-05-05 03:51 | 18.29461 | 118.62057 | 39951 ft | 484 kts | 313° |
| 2026-05-05 03:52 | 18.34029 | 118.56917 | 39951 ft | 484 kts | 313° |
| 2026-05-05 03:52 | 18.38636 | 118.51730 | 39951 ft | 484 kts | 313° |
| 2026-05-05 03:53 | 18.43192 | 118.46596 | 39951 ft | 484 kts | 313° |
| 2026-05-05 03:53 | 18.47756 | 118.41447 | 39951 ft | 484 kts | 313° |
| 2026-05-05 03:54 | 18.52375 | 118.36234 | 39951 ft | 484 kts | 313° |
| 2026-05-05 03:54 | 18.56959 | 118.31036 | 39951 ft | 484 kts | 313° |
| 2026-05-05 03:55 | 18.61558 | 118.25812 | 39951 ft | 484 kts | 313° |
| 2026-05-05 03:55 | 18.66084 | 118.20680 | 39951 ft | 484 kts | 313° |
| 2026-05-05 03:56 | 18.70450 | 118.15734 | 39951 ft | 484 kts | 313° |
| 2026-05-05 03:57 | 18.79603 | 118.05357 | 39951 ft | 484 kts | 313° |
| 2026-05-05 03:57 | 18.84218 | 118.00118 | 39951 ft | 484 kts | 313° |
| 2026-05-05 03:58 | 18.88819 | 117.94892 | 39951 ft | 484 kts | 313° |
| 2026-05-05 03:58 | 18.93393 | 117.89697 | 39951 ft | 486 kts | 313° |
| 2026-05-05 03:59 | 18.97260 | 117.85304 | 39724 ft | 487 kts | 313° |